sensor_id;sensor_type;location;lat;lon;timestamp;P1;durP1;ratioP1;P2;durP2;ratioP2
35394;SDS011;21500;45.308;9.488;2022-08-01T06:24:19;8.73;;;7.93;;
35394;SDS011;21500;45.308;9.488;2022-08-01T06:50:00;12.00;;;7.35;;
35394;SDS011;21500;45.308;9.488;2022-08-01T06:55:14;7.95;;;6.28;;
35394;SDS011;21500;45.308;9.488;2022-08-01T06:57:50;9.95;;;6.22;;
35394;SDS011;21500;45.308;9.488;2022-08-01T07:00:18;7.30;;;6.03;;
35394;SDS011;21500;45.308;9.488;2022-08-01T07:02:51;10.48;;;7.07;;
35394;SDS011;21500;45.308;9.488;2022-08-01T07:07:44;11.23;;;7.82;;
35394;SDS011;21500;45.308;9.488;2022-08-01T07:10:10;9.18;;;6.60;;
35394;SDS011;21500;45.308;9.488;2022-08-01T07:12:36;8.70;;;7.00;;
35394;SDS011;21500;45.308;9.488;2022-08-01T07:15:06;7.18;;;6.47;;
35394;SDS011;21500;45.308;9.488;2022-08-01T07:17:36;10.05;;;6.90;;
35394;SDS011;21500;45.308;9.488;2022-08-01T07:20:06;10.00;;;8.95;;
35394;SDS011;21500;45.308;9.488;2022-08-01T07:22:33;9.77;;;8.82;;
35394;SDS011;21500;45.308;9.488;2022-08-01T07:24:59;9.07;;;7.25;;
35394;SDS011;21500;45.308;9.488;2022-08-01T07:27:25;10.50;;;9.20;;
35394;SDS011;21500;45.308;9.488;2022-08-01T07:29:51;10.57;;;9.63;;
35394;SDS011;21500;45.308;9.488;2022-08-01T07:32:16;10.77;;;9.77;;
35394;SDS011;21500;45.308;9.488;2022-08-01T10:41:02;7.78;;;6.60;;
35394;SDS011;21500;45.308;9.488;2022-08-01T10:43:28;14.85;;;7.78;;
35394;SDS011;21500;45.308;9.488;2022-08-01T10:45:54;7.85;;;5.80;;
35394;SDS011;21500;45.308;9.488;2022-08-01T10:48:29;7.13;;;5.00;;
35394;SDS011;21500;45.308;9.488;2022-08-01T10:51:03;7.25;;;5.10;;
35394;SDS011;21500;45.308;9.488;2022-08-01T10:53:30;6.47;;;5.18;;
35394;SDS011;21500;45.308;9.488;2022-08-01T10:58:22;7.68;;;5.20;;
35394;SDS011;21500;45.308;9.488;2022-08-01T11:08:51;11.85;;;5.03;;
35394;SDS011;21500;45.308;9.488;2022-08-01T11:11:19;8.27;;;4.90;;
35394;SDS011;21500;45.308;9.488;2022-08-01T11:16:38;8.48;;;4.45;;
35394;SDS011;21500;45.308;9.488;2022-08-01T11:19:06;8.07;;;3.70;;
35394;SDS011;21500;45.308;9.488;2022-08-01T11:27:16;7.32;;;4.15;;
35394;SDS011;21500;45.308;9.488;2022-08-01T11:32:46;7.43;;;4.47;;
35394;SDS011;21500;45.308;9.488;2022-08-01T11:35:23;6.28;;;2.88;;
35394;SDS011;21500;45.308;9.488;2022-08-01T11:38:27;3.67;;;2.60;;
35394;SDS011;21500;45.308;9.488;2022-08-01T11:47:05;3.50;;;2.25;;
35394;SDS011;21500;45.308;9.488;2022-08-01T12:05:12;6.18;;;1.20;;
35394;SDS011;21500;45.308;9.488;2022-08-01T12:47:20;8.05;;;4.45;;
35394;SDS011;21500;45.308;9.488;2022-08-01T12:58:46;7.20;;;3.95;;
35394;SDS011;21500;45.308;9.488;2022-08-01T13:06:45;8.88;;;5.53;;
35394;SDS011;21500;45.308;9.488;2022-08-01T13:09:32;5.90;;;2.40;;
35394;SDS011;21500;45.308;9.488;2022-08-01T13:12:14;6.18;;;3.17;;
35394;SDS011;21500;45.308;9.488;2022-08-01T13:14:51;4.35;;;2.30;;
35394;SDS011;21500;45.308;9.488;2022-08-01T18:22:20;3.47;;;1.02;;
35394;SDS011;21500;45.308;9.488;2022-08-01T18:24:49;4.88;;;1.02;;
35394;SDS011;21500;45.308;9.488;2022-08-01T18:27:15;9.07;;;2.03;;
35394;SDS011;21500;45.308;9.488;2022-08-01T18:29:41;6.53;;;1.30;;
35394;SDS011;21500;45.308;9.488;2022-08-01T18:32:10;16.00;;;3.13;;
35394;SDS011;21500;45.308;9.488;2022-08-01T18:34:36;9.65;;;1.42;;
35394;SDS011;21500;45.308;9.488;2022-08-01T18:37:02;10.43;;;1.77;;
35394;SDS011;21500;45.308;9.488;2022-08-01T18:39:27;9.98;;;1.90;;
35394;SDS011;21500;45.308;9.488;2022-08-01T18:41:53;9.95;;;1.33;;
35394;SDS011;21500;45.308;9.488;2022-08-01T18:44:21;3.58;;;1.60;;
35394;SDS011;21500;45.308;9.488;2022-08-01T18:46:48;6.90;;;1.75;;
35394;SDS011;21500;45.308;9.488;2022-08-01T18:49:14;8.10;;;1.55;;
35394;SDS011;21500;45.308;9.488;2022-08-01T18:51:40;9.20;;;2.55;;
35394;SDS011;21500;45.308;9.488;2022-08-01T18:54:06;5.80;;;1.42;;
35394;SDS011;21500;45.308;9.488;2022-08-01T18:56:32;6.07;;;1.75;;
35394;SDS011;21500;45.308;9.488;2022-08-01T18:59:00;1.60;;;1.30;;
35394;SDS011;21500;45.308;9.488;2022-08-01T19:01:25;7.15;;;1.30;;
35394;SDS011;21500;45.308;9.488;2022-08-01T19:03:51;7.25;;;1.58;;
35394;SDS011;21500;45.308;9.488;2022-08-01T19:06:20;4.47;;;1.90;;
35394;SDS011;21500;45.308;9.488;2022-08-01T19:08:47;5.50;;;1.25;;
35394;SDS011;21500;45.308;9.488;2022-08-01T19:11:13;3.13;;;1.35;;
35394;SDS011;21500;45.308;9.488;2022-08-01T19:13:39;4.68;;;1.30;;
35394;SDS011;21500;45.308;9.488;2022-08-01T19:16:06;4.60;;;1.40;;
35394;SDS011;21500;45.308;9.488;2022-08-01T19:21:13;6.78;;;1.48;;
35394;SDS011;21500;45.308;9.488;2022-08-01T19:23:46;3.75;;;1.55;;
35394;SDS011;21500;45.308;9.488;2022-08-01T19:26:31;4.53;;;1.35;;
35394;SDS011;21500;45.308;9.488;2022-08-01T19:29:06;2.42;;;1.40;;
35394;SDS011;21500;45.308;9.488;2022-08-01T19:31:35;1.65;;;1.35;;
35394;SDS011;21500;45.308;9.488;2022-08-01T19:34:04;5.93;;;1.50;;
35394;SDS011;21500;45.308;9.488;2022-08-01T19:36:36;4.15;;;1.52;;
35394;SDS011;21500;45.308;9.488;2022-08-01T19:39:09;2.90;;;1.33;;
35394;SDS011;21500;45.308;9.488;2022-08-01T19:41:38;1.95;;;1.45;;
35394;SDS011;21500;45.308;9.488;2022-08-01T19:44:11;7.13;;;1.33;;
35394;SDS011;21500;45.308;9.488;2022-08-01T19:46:40;4.97;;;2.22;;
35394;SDS011;21500;45.308;9.488;2022-08-01T19:49:08;4.32;;;2.25;;
35394;SDS011;21500;45.308;9.488;2022-08-01T19:51:59;2.92;;;1.27;;
